sensor_id;sensor_type;location;lat;lon;timestamp;pressure;altitude;pressure_sealevel;temperature;humidity
11605;BME280;5858;43.076;25.626;2022-09-09T00:00:24;99265.38;;;22.28;52.69
11605;BME280;5858;43.076;25.626;2022-09-09T00:02:57;99322.91;;;22.69;53.52
11605;BME280;5858;43.076;25.626;2022-09-09T00:05:32;99281.00;;;22.43;52.30
11605;BME280;5858;43.076;25.626;2022-09-09T00:08:06;99202.97;;;22.00;52.44
11605;BME280;5858;43.076;25.626;2022-09-09T00:10:40;99307.91;;;22.67;52.70
11605;BME280;5858;43.076;25.626;2022-09-09T00:13:15;99248.13;;;22.23;52.74
11605;BME280;5858;43.076;25.626;2022-09-09T00:15:50;99290.84;;;22.44;52.53
11605;BME280;5858;43.076;25.626;2022-09-09T00:18:25;99326.69;;;22.63;52.81
11605;BME280;5858;43.076;25.626;2022-09-09T00:20:58;99236.28;;;22.07;52.11
11605;BME280;5858;43.076;25.626;2022-09-09T00:23:34;99324.78;;;22.63;52.99
11605;BME280;5858;43.076;25.626;2022-09-09T00:26:08;99316.31;;;22.60;53.38
11605;BME280;5858;43.076;25.626;2022-09-09T00:28:41;99243.63;;;22.07;52.75
11605;BME280;5858;43.076;25.626;2022-09-09T00:31:15;99199.00;;;21.81;53.48
11605;BME280;5858;43.076;25.626;2022-09-09T00:33:43;99254.88;;;22.15;52.83
11605;BME280;5858;43.076;25.626;2022-09-09T00:36:13;99304.53;;;22.54;52.92
11605;BME280;5858;43.076;25.626;2022-09-09T00:38:46;99309.47;;;22.57;53.05
11605;BME280;5858;43.076;25.626;2022-09-09T00:41:20;99265.88;;;22.25;53.63
11605;BME280;5858;43.076;25.626;2022-09-09T00:43:56;99154.06;;;21.51;53.37
11605;BME280;5858;43.076;25.626;2022-09-09T00:49:38;99314.81;;;22.42;54.06
11605;BME280;5858;43.076;25.626;2022-09-09T00:52:24;99208.69;;;21.72;54.51
11605;BME280;5858;43.076;25.626;2022-09-09T00:55:00;99302.28;;;22.41;54.18
11605;BME280;5858;43.076;25.626;2022-09-09T00:57:30;99302.50;;;22.35;54.81
11605;BME280;5858;43.076;25.626;2022-09-09T01:00:15;99246.09;;;22.08;54.19
11605;BME280;5858;43.076;25.626;2022-09-09T01:02:54;99277.28;;;22.22;54.97
11605;BME280;5858;43.076;25.626;2022-09-09T01:05:29;99265.44;;;22.07;54.58
11605;BME280;5858;43.076;25.626;2022-09-09T01:08:05;99217.50;;;21.79;54.97
11605;BME280;5858;43.076;25.626;2022-09-09T01:10:43;99254.81;;;22.05;55.16
11605;BME280;5858;43.076;25.626;2022-09-09T01:13:16;99296.75;;;22.31;54.98
11605;BME280;5858;43.076;25.626;2022-09-09T01:15:48;99300.03;;;22.33;55.29
11605;BME280;5858;43.076;25.626;2022-09-09T01:18:17;99186.00;;;21.61;54.86
11605;BME280;5858;43.076;25.626;2022-09-09T01:20:51;99272.09;;;22.21;55.26
11605;BME280;5858;43.076;25.626;2022-09-09T01:23:41;99137.72;;;21.24;56.55
11605;BME280;5858;43.076;25.626;2022-09-09T01:26:29;99293.91;;;22.21;56.45
11605;BME280;5858;43.076;25.626;2022-09-09T01:28:57;99255.81;;;21.72;58.16
11605;BME280;5858;43.076;25.626;2022-09-09T01:31:28;99186.72;;;21.24;57.42
11605;BME280;5858;43.076;25.626;2022-09-09T01:33:56;99268.09;;;21.75;57.23
11605;BME280;5858;43.076;25.626;2022-09-09T01:36:31;99262.81;;;21.63;57.22
11605;BME280;5858;43.076;25.626;2022-09-09T01:39:01;99302.09;;;21.94;56.84
11605;BME280;5858;43.076;25.626;2022-09-09T01:41:31;99112.69;;;20.79;56.82
11605;BME280;5858;43.076;25.626;2022-09-09T01:43:58;99253.88;;;21.67;56.54
11605;BME280;5858;43.076;25.626;2022-09-09T01:46:26;99251.34;;;21.61;56.51
11605;BME280;5858;43.076;25.626;2022-09-09T01:48:54;99298.28;;;21.95;56.96
11605;BME280;5858;43.076;25.626;2022-09-09T01:51:23;99279.31;;;21.78;56.65
11605;BME280;5858;43.076;25.626;2022-09-09T01:53:51;99292.75;;;21.85;57.30
11605;BME280;5858;43.076;25.626;2022-09-09T01:56:36;99269.34;;;21.62;56.87
11605;BME280;5858;43.076;25.626;2022-09-09T01:59:24;99203.84;;;21.25;57.13
11605;BME280;5858;43.076;25.626;2022-09-09T02:02:09;99220.06;;;21.36;57.04
11605;BME280;5858;43.076;25.626;2022-09-09T02:04:38;99268.47;;;21.56;57.21
11605;BME280;5858;43.076;25.626;2022-09-09T02:07:13;99257.94;;;21.65;56.68
11605;BME280;5858;43.076;25.626;2022-09-09T02:09:43;99299.09;;;21.95;56.66
11605;BME280;5858;43.076;25.626;2022-09-09T02:12:16;99300.13;;;21.89;57.04
11605;BME280;5858;43.076;25.626;2022-09-09T02:14:50;99247.28;;;21.63;57.02
11605;BME280;5858;43.076;25.626;2022-09-09T02:17:24;99272.66;;;21.69;57.85
11605;BME280;5858;43.076;25.626;2022-09-09T02:19:57;99259.78;;;21.59;57.60
11605;BME280;5858;43.076;25.626;2022-09-09T02:22:28;99133.22;;;20.86;56.75
11605;BME280;5858;43.076;25.626;2022-09-09T02:24:58;99292.75;;;21.85;56.98
11605;BME280;5858;43.076;25.626;2022-09-09T02:27:27;99283.69;;;21.79;57.91
11605;BME280;5858;43.076;25.626;2022-09-09T02:29:56;99304.31;;;21.75;58.01
11605;BME280;5858;43.076;25.626;2022-09-09T02:32:29;99288.25;;;21.74;58.98
11605;BME280;5858;43.076;25.626;2022-09-09T02:35:03;99256.66;;;21.46;59.44
11605;BME280;5858;43.076;25.626;2022-09-09T02:37:36;99254.25;;;21.27;60.06
11605;BME280;5858;43.076;25.626;2022-09-09T02:40:06;99214.88;;;20.91;61.25
11605;BME280;5858;43.076;25.626;2022-09-09T02:42:41;99274.63;;;21.25;61.44
11605;BME280;5858;43.076;25.626;2022-09-09T02:45:11;99233.97;;;20.96;60.89
11605;BME280;5858;43.076;25.626;2022-09-09T02:47:42;99172.34;;;20.63;60.75
11605;BME280;5858;43.076;25.626;2022-09-09T02:50:19;99272.47;;;21.27;61.17
11605;BME280;5858;43.076;25.626;2022-09-09T02:52:57;99273.97;;;21.18;60.95
11605;BME280;5858;43.076;25.626;2022-09-09T02:55:34;99283.50;;;21.37;60.92
11605;BME280;5858;43.076;25.626;2022-09-09T02:58:06;99278.00;;;21.32;61.54
11605;BME280;5858;43.076;25.626;2022-09-09T03:00:36;99240.56;;;21.00;61.45
11605;BME280;5858;43.076;25.626;2022-09-09T03:03:05;99234.50;;;20.93;61.55
11605;BME280;5858;43.076;25.626;2022-09-09T03:05:32;99278.25;;;21.30;61.91
11605;BME280;5858;43.076;25.626;2022-09-09T03:10:58;99272.06;;;21.18;62.06
11605;BME280;5858;43.076;25.626;2022-09-09T03:13:28;99240.25;;;20.97;62.69
11605;BME280;5858;43.076;25.626;2022-09-09T03:15:56;99279.41;;;21.18;61.23
11605;BME280;5858;43.076;25.626;2022-09-09T03:18:23;99151.31;;;20.37;58.48
11605;BME280;5858;43.076;25.626;2022-09-09T03:20:51;99265.81;;;21.18;58.42
11605;BME280;5858;43.076;25.626;2022-09-09T03:23:21;99265.22;;;21.16;61.35
11605;BME280;5858;43.076;25.626;2022-09-09T03:25:50;99113.97;;;20.10;61.88
11605;BME280;5858;43.076;25.626;2022-09-09T03:28:22;99089.41;;;20.00;62.51
11605;BME280;5858;43.076;25.626;2022-09-09T03:30:59;99243.09;;;20.85;62.55
11605;BME280;5858;43.076;25.626;2022-09-09T03:33:30;99279.47;;;21.01;62.50
11605;BME280;5858;43.076;25.626;2022-09-09T03:35:58;99253.06;;;20.80;62.61
11605;BME280;5858;43.076;25.626;2022-09-09T03:38:28;99287.63;;;21.01;61.95
11605;BME280;5858;43.076;25.626;2022-09-09T03:41:02;99203.53;;;20.39;60.01
11605;BME280;5858;43.076;25.626;2022-09-09T03:43:34;99286.56;;;21.02;58.50
11605;BME280;5858;43.076;25.626;2022-09-09T03:46:07;99250.25;;;20.74;59.10
11605;BME280;5858;43.076;25.626;2022-09-09T03:48:36;99282.44;;;20.99;59.17
11605;BME280;5858;43.076;25.626;2022-09-09T03:51:09;99127.41;;;20.00;58.24
11605;BME280;5858;43.076;25.626;2022-09-09T03:53:39;99217.56;;;20.69;58.65
11605;BME280;5858;43.076;25.626;2022-09-09T03:56:09;99280.94;;;21.09;61.37
11605;BME280;5858;43.076;25.626;2022-09-09T03:58:43;99187.47;;;20.37;65.23
11605;BME280;5858;43.076;25.626;2022-09-09T04:01:21;99185.25;;;20.18;66.36
11605;BME280;5858;43.076;25.626;2022-09-09T04:03:49;99247.53;;;20.53;66.75
11605;BME280;5858;43.076;25.626;2022-09-09T04:06:20;99284.47;;;20.70;67.13
11605;BME280;5858;43.076;25.626;2022-09-09T04:08:48;99291.16;;;20.63;68.59
11605;BME280;5858;43.076;25.626;2022-09-09T04:11:21;99284.34;;;20.60;68.89
11605;BME280;5858;43.076;25.626;2022-09-09T04:13:49;99286.81;;;20.62;68.52
11605;BME280;5858;43.076;25.626;2022-09-09T04:16:18;99215.66;;;19.98;68.73
11605;BME280;5858;43.076;25.626;2022-09-09T04:18:47;99302.69;;;20.70;69.10
11605;BME280;5858;43.076;25.626;2022-09-09T04:21:15;99254.75;;;20.30;69.05
11605;BME280;5858;43.076;25.626;2022-09-09T04:24:00;99243.59;;;20.43;68.36
11605;BME280;5858;43.076;25.626;2022-09-09T04:26:27;99207.59;;;20.03;69.27
11605;BME280;5858;43.076;25.626;2022-09-09T04:28:59;99252.63;;;20.49;68.58
11605;BME280;5858;43.076;25.626;2022-09-09T04:31:32;99248.91;;;20.55;68.03
11605;BME280;5858;43.076;25.626;2022-09-09T04:33:59;99251.31;;;20.52;68.49
11605;BME280;5858;43.076;25.626;2022-09-09T04:36:30;99227.66;;;20.52;67.04
11605;BME280;5858;43.076;25.626;2022-09-09T04:38:59;99263.28;;;20.89;64.08
11605;BME280;5858;43.076;25.626;2022-09-09T04:41:28;99263.41;;;20.99;61.29
11605;BME280;5858;43.076;25.626;2022-09-09T04:44:05;99304.81;;;21.45;61.21
11605;BME280;5858;43.076;25.626;2022-09-09T04:46:37;99334.00;;;21.50;59.09
11605;BME280;5858;43.076;25.626;2022-09-09T04:49:04;99269.59;;;21.33;58.09
11605;BME280;5858;43.076;25.626;2022-09-09T04:51:31;99311.50;;;21.81;58.79
11605;BME280;5858;43.076;25.626;2022-09-09T04:53:58;99264.19;;;21.65;60.08
11605;BME280;5858;43.076;25.626;2022-09-09T04:56:25;99238.81;;;21.60;56.28
11605;BME280;5858;43.076;25.626;2022-09-09T04:58:53;99228.41;;;21.79;57.33
11605;BME280;5858;43.076;25.626;2022-09-09T05:01:21;99222.28;;;21.98;60.95
11605;BME280;5858;43.076;25.626;2022-09-09T05:03:51;99215.00;;;22.04;59.07
11605;BME280;5858;43.076;25.626;2022-09-09T05:06:20;99316.25;;;22.82;56.87
11605;BME280;5858;43.076;25.626;2022-09-09T05:08:47;99216.66;;;22.42;52.82
11605;BME280;5858;43.076;25.626;2022-09-09T05:11:16;99261.44;;;22.88;52.00
11605;BME280;5858;43.076;25.626;2022-09-09T05:13:44;99227.84;;;22.88;49.33
11605;BME280;5858;43.076;25.626;2022-09-09T05:16:16;99225.84;;;23.31;49.61
11605;BME280;5858;43.076;25.626;2022-09-09T05:18:46;99314.31;;;24.17;47.41
11605;BME280;5858;43.076;25.626;2022-09-09T05:21:16;99243.47;;;24.06;47.89
11605;BME280;5858;43.076;25.626;2022-09-09T05:23:47;99226.25;;;24.10;46.56
11605;BME280;5858;43.076;25.626;2022-09-09T05:26:27;99285.34;;;24.47;45.19
11605;BME280;5858;43.076;25.626;2022-09-09T05:28:55;99235.56;;;24.45;48.54
11605;BME280;5858;43.076;25.626;2022-09-09T05:31:22;99266.41;;;24.86;47.83
11605;BME280;5858;43.076;25.626;2022-09-09T05:33:53;99274.59;;;25.12;46.30
11605;BME280;5858;43.076;25.626;2022-09-09T05:36:28;99211.09;;;24.89;45.27
11605;BME280;5858;43.076;25.626;2022-09-09T05:42:11;99283.47;;;25.42;44.79
11605;BME280;5858;43.076;25.626;2022-09-09T05:44:38;99249.78;;;25.42;43.46
11605;BME280;5858;43.076;25.626;2022-09-09T05:47:26;99239.53;;;25.68;43.27
11605;BME280;5858;43.076;25.626;2022-09-09T05:50:06;99280.09;;;26.10;44.09
11605;BME280;5858;43.076;25.626;2022-09-09T05:52:46;99141.53;;;25.45;41.63
11605;BME280;5858;43.076;25.626;2022-09-09T05:55:15;99183.63;;;25.98;41.23
11605;BME280;5858;43.076;25.626;2022-09-09T05:57:48;99290.66;;;26.61;41.36
11605;BME280;5858;43.076;25.626;2022-09-09T06:00:17;99255.38;;;26.49;40.37
11605;BME280;5858;43.076;25.626;2022-09-09T06:02:50;99257.91;;;26.70;40.45
11605;BME280;5858;43.076;25.626;2022-09-09T06:05:19;99252.06;;;27.05;39.78
11605;BME280;5858;43.076;25.626;2022-09-09T06:07:52;99246.56;;;27.48;39.44
11605;BME280;5858;43.076;25.626;2022-09-09T06:10:19;99196.06;;;27.44;38.11
11605;BME280;5858;43.076;25.626;2022-09-09T06:12:51;99268.84;;;28.40;38.11
11605;BME280;5858;43.076;25.626;2022-09-09T06:15:21;99232.56;;;28.19;37.25
11605;BME280;5858;43.076;25.626;2022-09-09T06:17:54;99246.94;;;28.49;36.47
11605;BME280;5858;43.076;25.626;2022-09-09T06:20:21;99251.06;;;28.79;35.90
11605;BME280;5858;43.076;25.626;2022-09-09T06:22:51;99129.28;;;28.41;36.31
11605;BME280;5858;43.076;25.626;2022-09-09T06:25:18;99230.50;;;29.04;34.73
11605;BME280;5858;43.076;25.626;2022-09-09T06:27:48;99269.19;;;28.99;34.08
11605;BME280;5858;43.076;25.626;2022-09-09T06:30:19;99190.66;;;28.69;37.46
11605;BME280;5858;43.076;25.626;2022-09-09T06:32:49;99166.50;;;28.52;34.40
11605;BME280;5858;43.076;25.626;2022-09-09T06:35:16;99168.53;;;28.46;34.87
11605;BME280;5858;43.076;25.626;2022-09-09T06:37:44;99258.56;;;28.92;34.05
11605;BME280;5858;43.076;25.626;2022-09-09T06:40:15;99267.06;;;28.77;34.77
11605;BME280;5858;43.076;25.626;2022-09-09T06:42:46;99246.66;;;28.64;34.67
11605;BME280;5858;43.076;25.626;2022-09-09T06:45:16;99235.63;;;28.50;35.70
11605;BME280;5858;43.076;25.626;2022-09-09T06:47:45;99257.56;;;28.69;35.96
11605;BME280;5858;43.076;25.626;2022-09-09T06:50:13;99171.19;;;28.05;35.93
11605;BME280;5858;43.076;25.626;2022-09-09T06:52:40;99121.75;;;27.68;36.72
11605;BME280;5858;43.076;25.626;2022-09-09T06:55:08;99169.66;;;27.80;35.86
11605;BME280;5858;43.076;25.626;2022-09-09T06:57:36;99117.47;;;27.62;36.85
11605;BME280;5858;43.076;25.626;2022-09-09T07:00:08;99193.09;;;28.10;35.67
11605;BME280;5858;43.076;25.626;2022-09-09T07:02:36;99142.63;;;28.01;37.13
11605;BME280;5858;43.076;25.626;2022-09-09T07:05:09;99258.19;;;28.80;35.49
11605;BME280;5858;43.076;25.626;2022-09-09T07:07:36;99258.13;;;28.85;35.85
11605;BME280;5858;43.076;25.626;2022-09-09T07:10:04;99230.75;;;28.61;35.75
11605;BME280;5858;43.076;25.626;2022-09-09T07:12:37;99206.78;;;28.62;35.80
11605;BME280;5858;43.076;25.626;2022-09-09T07:15:07;99099.19;;;27.84;34.73
11605;BME280;5858;43.076;25.626;2022-09-09T07:17:35;99169.41;;;28.28;35.06
11605;BME280;5858;43.076;25.626;2022-09-09T07:20:02;99223.09;;;28.72;35.20
11605;BME280;5858;43.076;25.626;2022-09-09T07:22:30;99137.84;;;28.07;35.96
11605;BME280;5858;43.076;25.626;2022-09-09T07:24:58;99201.19;;;28.67;35.83
11605;BME280;5858;43.076;25.626;2022-09-09T07:27:26;99206.16;;;28.78;35.05
11605;BME280;5858;43.076;25.626;2022-09-09T07:29:54;99143.97;;;28.50;35.70
11605;BME280;5858;43.076;25.626;2022-09-09T07:32:23;99257.75;;;29.33;35.85
11605;BME280;5858;43.076;25.626;2022-09-09T07:34:52;99179.38;;;28.84;35.52
11605;BME280;5858;43.076;25.626;2022-09-09T07:37:20;99150.88;;;28.75;34.87
11605;BME280;5858;43.076;25.626;2022-09-09T07:39:47;99171.38;;;28.82;34.82
11605;BME280;5858;43.076;25.626;2022-09-09T07:42:16;99091.31;;;28.38;34.33
11605;BME280;5858;43.076;25.626;2022-09-09T07:44:50;99116.44;;;28.50;34.97
11605;BME280;5858;43.076;25.626;2022-09-09T07:47:21;99267.03;;;29.37;34.64
11605;BME280;5858;43.076;25.626;2022-09-09T07:49:50;99149.34;;;28.82;34.27
11605;BME280;5858;43.076;25.626;2022-09-09T07:52:17;99257.19;;;29.58;35.01
11605;BME280;5858;43.076;25.626;2022-09-09T07:54:45;99239.25;;;29.33;35.04
11605;BME280;5858;43.076;25.626;2022-09-09T07:57:13;99242.88;;;29.70;35.12
11605;BME280;5858;43.076;25.626;2022-09-09T07:59:41;99205.34;;;29.47;33.75
11605;BME280;5858;43.076;25.626;2022-09-09T08:02:09;99203.13;;;29.71;34.43
11605;BME280;5858;43.076;25.626;2022-09-09T08:04:53;99206.16;;;29.83;32.92
11605;BME280;5858;43.076;25.626;2022-09-09T08:07:36;99234.69;;;30.01;32.68
11605;BME280;5858;43.076;25.626;2022-09-09T08:10:04;99241.47;;;30.17;32.73
11605;BME280;5858;43.076;25.626;2022-09-09T08:12:32;99251.75;;;30.48;33.72
11605;BME280;5858;43.076;25.626;2022-09-09T08:15:13;99258.84;;;30.62;32.16
11605;BME280;5858;43.076;25.626;2022-09-09T08:17:43;99205.84;;;30.29;32.20
11605;BME280;5858;43.076;25.626;2022-09-09T08:20:23;99202.59;;;30.27;32.96
11605;BME280;5858;43.076;25.626;2022-09-09T08:22:52;99151.88;;;30.23;32.35
11605;BME280;5858;43.076;25.626;2022-09-09T08:25:19;99249.56;;;30.89;32.46
11605;BME280;5858;43.076;25.626;2022-09-09T08:27:46;99159.00;;;30.47;31.88
11605;BME280;5858;43.076;25.626;2022-09-09T08:30:14;99196.25;;;30.97;30.84
11605;BME280;5858;43.076;25.626;2022-09-09T08:32:42;99072.31;;;30.25;31.33
11605;BME280;5858;43.076;25.626;2022-09-09T08:35:11;99200.63;;;30.90;31.87
11605;BME280;5858;43.076;25.626;2022-09-09T08:37:44;99156.75;;;30.88;31.94
11605;BME280;5858;43.076;25.626;2022-09-09T08:40:21;99178.75;;;31.19;32.65
11605;BME280;5858;43.076;25.626;2022-09-09T08:42:56;99198.66;;;31.39;30.75
11605;BME280;5858;43.076;25.626;2022-09-09T08:45:29;99071.03;;;30.71;31.48
11605;BME280;5858;43.076;25.626;2022-09-09T08:48:12;99093.81;;;30.77;30.45
11605;BME280;5858;43.076;25.626;2022-09-09T08:50:45;99183.69;;;31.57;31.69
11605;BME280;5858;43.076;25.626;2022-09-09T08:53:20;99094.31;;;31.05;30.62
11605;BME280;5858;43.076;25.626;2022-09-09T08:55:51;99197.09;;;31.72;29.98
11605;BME280;5858;43.076;25.626;2022-09-09T08:58:22;99214.50;;;31.81;30.23
11605;BME280;5858;43.076;25.626;2022-09-09T09:01:28;99203.72;;;31.62;30.58
11605;BME280;5858;43.076;25.626;2022-09-09T09:04:10;99181.75;;;31.49;30.03
11605;BME280;5858;43.076;25.626;2022-09-09T09:06:51;99198.19;;;31.45;30.73
11605;BME280;5858;43.076;25.626;2022-09-09T09:09:31;99204.69;;;31.58;30.57
11605;BME280;5858;43.076;25.626;2022-09-09T09:12:15;99100.66;;;31.14;31.11
11605;BME280;5858;43.076;25.626;2022-09-09T09:14:43;99117.31;;;31.22;31.01
11605;BME280;5858;43.076;25.626;2022-09-09T09:17:17;99110.81;;;31.27;30.23
11605;BME280;5858;43.076;25.626;2022-09-09T09:19:46;99098.94;;;31.26;29.82
11605;BME280;5858;43.076;25.626;2022-09-09T09:22:19;99145.09;;;31.69;31.06
11605;BME280;5858;43.076;25.626;2022-09-09T09:24:52;99100.72;;;31.48;31.42
11605;BME280;5858;43.076;25.626;2022-09-09T09:27:29;99195.09;;;32.24;30.41
11605;BME280;5858;43.076;25.626;2022-09-09T09:29:58;99196.72;;;32.17;29.87
11605;BME280;5858;43.076;25.626;2022-09-09T09:32:28;99155.84;;;31.97;29.98
11605;BME280;5858;43.076;25.626;2022-09-09T09:34:58;99097.91;;;31.66;29.94
11605;BME280;5858;43.076;25.626;2022-09-09T09:37:29;99131.28;;;31.95;30.90
11605;BME280;5858;43.076;25.626;2022-09-09T09:40:09;99184.66;;;32.30;30.01
11605;BME280;5858;43.076;25.626;2022-09-09T09:42:37;99139.72;;;32.07;30.03
11605;BME280;5858;43.076;25.626;2022-09-09T09:45:16;99132.19;;;32.16;29.85
11605;BME280;5858;43.076;25.626;2022-09-09T09:47:44;99037.72;;;31.54;29.76
11605;BME280;5858;43.076;25.626;2022-09-09T09:50:17;99010.44;;;31.35;30.56
11605;BME280;5858;43.076;25.626;2022-09-09T09:52:54;99177.13;;;32.39;30.87
11605;BME280;5858;43.076;25.626;2022-09-09T09:55:26;99152.38;;;32.34;30.47
11605;BME280;5858;43.076;25.626;2022-09-09T09:58:03;99069.28;;;31.79;29.54
11605;BME280;5858;43.076;25.626;2022-09-09T10:00:31;99143.25;;;32.16;30.63
11605;BME280;5858;43.076;25.626;2022-09-09T10:03:18;99167.81;;;32.44;29.89
11605;BME280;5858;43.076;25.626;2022-09-09T10:05:48;99142.44;;;32.16;30.17
11605;BME280;5858;43.076;25.626;2022-09-09T10:08:18;99141.78;;;32.36;31.31
11605;BME280;5858;43.076;25.626;2022-09-09T10:11:16;99155.97;;;32.73;31.15
11605;BME280;5858;43.076;25.626;2022-09-09T10:14:02;99156.66;;;32.61;30.24
11605;BME280;5858;43.076;25.626;2022-09-09T10:16:45;99027.78;;;31.79;29.93
11605;BME280;5858;43.076;25.626;2022-09-09T10:19:20;99136.91;;;32.63;30.51
11605;BME280;5858;43.076;25.626;2022-09-09T10:25:10;99111.63;;;32.35;30.07
11605;BME280;5858;43.076;25.626;2022-09-09T10:27:51;99137.59;;;32.60;30.50
11605;BME280;5858;43.076;25.626;2022-09-09T10:30:28;99053.03;;;32.15;29.88
11605;BME280;5858;43.076;25.626;2022-09-09T10:33:06;99062.63;;;32.27;30.46
11605;BME280;5858;43.076;25.626;2022-09-09T10:35:39;99050.78;;;32.17;29.56
11605;BME280;5858;43.076;25.626;2022-09-09T10:41:37;99059.09;;;32.47;29.94
11605;BME280;5858;43.076;25.626;2022-09-09T10:44:17;99162.09;;;33.16;29.50
11605;BME280;5858;43.076;25.626;2022-09-09T10:47:00;99130.56;;;33.21;28.99
11605;BME280;5858;43.076;25.626;2022-09-09T10:49:59;99057.13;;;32.77;29.21
11605;BME280;5858;43.076;25.626;2022-09-09T10:52:34;99062.59;;;32.65;30.01
11605;BME280;5858;43.076;25.626;2022-09-09T10:55:10;99005.25;;;32.36;29.01
11605;BME280;5858;43.076;25.626;2022-09-09T10:57:42;99126.81;;;32.96;29.10
11605;BME280;5858;43.076;25.626;2022-09-09T11:00:17;99033.63;;;32.53;30.05
11605;BME280;5858;43.076;25.626;2022-09-09T11:03:14;99134.06;;;33.39;28.98
11605;BME280;5858;43.076;25.626;2022-09-09T11:05:46;99088.28;;;33.03;28.81
11605;BME280;5858;43.076;25.626;2022-09-09T11:08:37;99122.97;;;33.39;29.28
11605;BME280;5858;43.076;25.626;2022-09-09T11:11:26;99089.09;;;33.25;30.63
11605;BME280;5858;43.076;25.626;2022-09-09T11:14:03;99113.00;;;33.38;28.67
11605;BME280;5858;43.076;25.626;2022-09-09T11:16:43;99129.47;;;33.76;29.51
11605;BME280;5858;43.076;25.626;2022-09-09T11:19:16;99122.28;;;33.63;28.59
11605;BME280;5858;43.076;25.626;2022-09-09T11:21:48;99140.75;;;33.59;29.10
11605;BME280;5858;43.076;25.626;2022-09-09T11:24:21;99064.75;;;33.09;29.30
11605;BME280;5858;43.076;25.626;2022-09-09T11:26:53;99119.75;;;33.49;29.14
11605;BME280;5858;43.076;25.626;2022-09-09T11:32:37;99128.50;;;33.60;29.89
11605;BME280;5858;43.076;25.626;2022-09-09T11:35:20;99126.78;;;33.88;29.93
11605;BME280;5858;43.076;25.626;2022-09-09T11:38:14;99119.28;;;34.01;29.29
11605;BME280;5858;43.076;25.626;2022-09-09T11:40:43;99084.34;;;34.00;28.46
11605;BME280;5858;43.076;25.626;2022-09-09T11:43:13;99024.91;;;33.68;28.47
11605;BME280;5858;43.076;25.626;2022-09-09T11:45:49;99087.28;;;34.16;28.37
11605;BME280;5858;43.076;25.626;2022-09-09T11:48:29;99075.41;;;33.94;28.26
11605;BME280;5858;43.076;25.626;2022-09-09T11:51:00;99099.41;;;33.78;28.93
11605;BME280;5858;43.076;25.626;2022-09-09T11:53:33;99068.97;;;33.36;29.08
11605;BME280;5858;43.076;25.626;2022-09-09T11:56:06;99064.28;;;33.28;29.01
11605;BME280;5858;43.076;25.626;2022-09-09T11:58:40;99007.34;;;32.89;29.69
11605;BME280;5858;43.076;25.626;2022-09-09T12:01:37;99082.78;;;33.57;30.33
11605;BME280;5858;43.076;25.626;2022-09-09T12:04:27;99081.34;;;33.72;30.47
11605;BME280;5858;43.076;25.626;2022-09-09T12:06:59;98941.75;;;32.93;30.56
11605;BME280;5858;43.076;25.626;2022-09-09T12:09:32;99074.16;;;34.04;28.54
11605;BME280;5858;43.076;25.626;2022-09-09T12:12:21;99012.94;;;33.55;28.48
11605;BME280;5858;43.076;25.626;2022-09-09T12:14:56;99002.25;;;33.66;28.59
11605;BME280;5858;43.076;25.626;2022-09-09T12:17:41;99055.00;;;34.35;28.77
11605;BME280;5858;43.076;25.626;2022-09-09T12:20:55;99054.53;;;34.46;28.17
11605;BME280;5858;43.076;25.626;2022-09-09T12:23:32;98919.06;;;33.57;28.18
11605;BME280;5858;43.076;25.626;2022-09-09T12:29:31;99061.06;;;34.04;29.21
11605;BME280;5858;43.076;25.626;2022-09-09T12:32:22;98950.38;;;33.45;29.13
11605;BME280;5858;43.076;25.626;2022-09-09T12:34:53;98903.88;;;33.30;28.80
11605;BME280;5858;43.076;25.626;2022-09-09T12:37:31;99034.94;;;34.30;28.68
11605;BME280;5858;43.076;25.626;2022-09-09T12:40:19;99034.63;;;34.44;29.04
11605;BME280;5858;43.076;25.626;2022-09-09T12:42:55;98933.31;;;33.68;28.53
11605;BME280;5858;43.076;25.626;2022-09-09T12:45:23;99036.56;;;34.19;28.13
11605;BME280;5858;43.076;25.626;2022-09-09T12:47:55;98976.28;;;33.49;28.60
11605;BME280;5858;43.076;25.626;2022-09-09T12:50:25;98986.75;;;33.32;29.19
11605;BME280;5858;43.076;25.626;2022-09-09T12:56:04;99035.56;;;33.12;29.44
11605;BME280;5858;43.076;25.626;2022-09-09T12:58:33;98949.78;;;32.44;30.66
11605;BME280;5858;43.076;25.626;2022-09-09T13:01:05;99021.34;;;32.63;30.44
11605;BME280;5858;43.076;25.626;2022-09-09T13:03:41;99032.56;;;32.46;30.53
11605;BME280;5858;43.076;25.626;2022-09-09T13:06:17;98954.03;;;31.66;31.65
11605;BME280;5858;43.076;25.626;2022-09-09T13:08:50;99033.00;;;32.18;31.53
11605;BME280;5858;43.076;25.626;2022-09-09T13:11:21;99003.94;;;31.95;32.31
11605;BME280;5858;43.076;25.626;2022-09-09T13:13:52;99040.66;;;32.13;32.20
11605;BME280;5858;43.076;25.626;2022-09-09T13:16:41;98890.13;;;31.03;32.25
11605;BME280;5858;43.076;25.626;2022-09-09T13:19:14;99029.44;;;31.71;32.75
11605;BME280;5858;43.076;25.626;2022-09-09T13:21:43;98951.41;;;31.05;33.07
11605;BME280;5858;43.076;25.626;2022-09-09T13:24:30;99031.22;;;31.50;33.42
11605;BME280;5858;43.076;25.626;2022-09-09T13:27:00;99060.03;;;31.40;33.51
11605;BME280;5858;43.076;25.626;2022-09-09T13:29:29;98995.16;;;31.20;33.57
11605;BME280;5858;43.076;25.626;2022-09-09T13:32:04;98948.16;;;30.94;33.55
11605;BME280;5858;43.076;25.626;2022-09-09T13:34:36;99035.13;;;31.57;33.51
11605;BME280;5858;43.076;25.626;2022-09-09T13:37:05;98900.72;;;30.66;34.02
11605;BME280;5858;43.076;25.626;2022-09-09T13:39:35;98900.22;;;30.64;34.31
11605;BME280;5858;43.076;25.626;2022-09-09T13:42:04;98982.44;;;31.11;33.86
11605;BME280;5858;43.076;25.626;2022-09-09T13:44:38;98967.03;;;30.84;34.34
11605;BME280;5858;43.076;25.626;2022-09-09T13:47:18;99013.72;;;31.28;34.10
11605;BME280;5858;43.076;25.626;2022-09-09T13:49:46;99049.94;;;31.44;34.13
11605;BME280;5858;43.076;25.626;2022-09-09T13:52:15;98962.34;;;30.76;34.69
11605;BME280;5858;43.076;25.626;2022-09-09T13:54:47;99042.97;;;31.29;34.88
11605;BME280;5858;43.076;25.626;2022-09-09T13:57:21;98967.84;;;30.84;35.24